createdAt,value
2022-09-17T00:01:29.386Z,10.80
2022-09-17T00:04:02.131Z,10.80
2022-09-17T00:06:28.917Z,10.90
2022-09-17T00:08:55.726Z,10.90
2022-09-17T00:11:29.855Z,10.90
2022-09-17T00:13:59.613Z,10.90
2022-09-17T00:16:29.337Z,10.90
2022-09-17T00:18:56.409Z,10.90
2022-09-17T00:21:23.925Z,10.90
2022-09-17T00:23:55.123Z,10.90
2022-09-17T00:26:22.098Z,10.90
2022-09-17T00:28:53.664Z,10.80
2022-09-17T00:31:22.357Z,10.80
2022-09-17T00:33:49.582Z,10.80
2022-09-17T00:36:16.769Z,10.80
2022-09-17T00:38:44.186Z,10.80
2022-09-17T00:41:10.945Z,10.70
2022-09-17T00:43:43.844Z,10.70
2022-09-17T00:46:21.788Z,10.60
2022-09-17T00:48:49.148Z,10.60
2022-09-17T00:51:20.048Z,10.50
2022-09-17T00:53:47.507Z,10.50
2022-09-17T00:56:23.682Z,10.50
2022-09-17T00:58:52.724Z,10.50
2022-09-17T01:01:19.727Z,10.40
2022-09-17T01:03:46.583Z,10.40
2022-09-17T01:06:31.160Z,10.40
2022-09-17T01:09:16.168Z,10.40
2022-09-17T01:12:12.417Z,10.40
2022-09-17T01:15:04.303Z,10.40
2022-09-17T01:17:36.067Z,10.40
2022-09-17T01:20:38.148Z,10.30
2022-09-17T01:23:39.191Z,10.30
2022-09-17T01:26:56.394Z,10.20
2022-09-17T01:29:55.552Z,10.20
2022-09-17T01:32:30.271Z,10.20
2022-09-17T01:35:23.104Z,10.10
2022-09-17T01:38:08.788Z,10.10
2022-09-17T01:40:45.962Z,10.10
2022-09-17T01:43:28.978Z,10.20
2022-09-17T01:46:01.527Z,10.10
2022-09-17T01:48:35.356Z,10.10
2022-09-17T01:51:22.117Z,10.10
2022-09-17T01:54:00.542Z,10.10
2022-09-17T01:56:33.823Z,10.20
2022-09-17T01:59:24.194Z,10.20
2022-09-17T02:01:56.727Z,10.20
2022-09-17T02:04:28.502Z,10.10
2022-09-17T02:07:03.759Z,10.20
2022-09-17T02:09:41.704Z,10.20
2022-09-17T02:19:02.689Z,10.30
2022-09-17T02:21:40.626Z,10.30
2022-09-17T02:24:17.836Z,10.30
2022-09-17T02:27:03.836Z,10.40
2022-09-17T02:29:49.742Z,10.40
2022-09-17T02:32:16.886Z,10.40
2022-09-17T02:34:43.593Z,10.30
2022-09-17T02:37:11.165Z,10.30
2022-09-17T02:39:38.034Z,10.30
2022-09-17T02:42:39.417Z,10.30
2022-09-17T02:45:24.606Z,10.30
2022-09-17T02:48:28.673Z,10.30
2022-09-17T02:51:25.004Z,10.30
2022-09-17T02:54:10.204Z,10.30
2022-09-17T02:56:54.971Z,10.30
2022-09-17T02:59:31.807Z,10.30
2022-09-17T03:02:07.550Z,10.30
2022-09-17T03:04:37.020Z,10.40
2022-09-17T03:07:09.291Z,10.30
2022-09-17T03:09:36.374Z,10.40
2022-09-17T03:12:03.664Z,10.40
2022-09-17T03:14:30.357Z,10.40
2022-09-17T03:16:57.507Z,10.40
2022-09-17T03:19:24.366Z,10.40
2022-09-17T03:21:51.014Z,10.40
2022-09-17T03:24:17.744Z,10.50
2022-09-17T03:26:44.682Z,10.40
2022-09-17T03:29:11.435Z,10.50
2022-09-17T03:31:38.156Z,10.50
2022-09-17T03:34:05.208Z,10.50
2022-09-17T03:36:31.909Z,10.50
2022-09-17T03:38:59.089Z,10.50
2022-09-17T03:41:26.207Z,10.50
2022-09-17T03:43:53.351Z,10.50
2022-09-17T03:46:20.724Z,10.50
2022-09-17T03:48:47.536Z,10.50
2022-09-17T03:51:14.291Z,10.60
2022-09-17T03:53:41.041Z,10.50
2022-09-17T03:56:08.420Z,10.60
2022-09-17T03:58:35.838Z,10.50
2022-09-17T04:01:04.128Z,10.50
2022-09-17T04:03:31.360Z,10.50
2022-09-17T04:05:58.172Z,10.40
2022-09-17T04:08:25.027Z,10.50
2022-09-17T04:10:51.941Z,10.50
2022-09-17T04:13:19.682Z,10.50
2022-09-17T04:15:47.101Z,10.50
2022-09-17T04:18:14.511Z,10.50
2022-09-17T04:20:41.421Z,10.50
2022-09-17T04:23:11.326Z,10.50
2022-09-17T04:25:38.446Z,10.50
2022-09-17T04:28:05.185Z,10.40
2022-09-17T04:30:32.147Z,10.40
2022-09-17T04:32:58.992Z,10.40
2022-09-17T04:35:25.866Z,10.40
2022-09-17T04:37:57.133Z,10.40
2022-09-17T04:40:25.555Z,10.30
2022-09-17T04:42:56.631Z,10.30
2022-09-17T04:45:23.746Z,10.30
2022-09-17T04:47:53.297Z,10.30
2022-09-17T04:50:20.883Z,10.30
2022-09-17T04:52:49.815Z,10.30
2022-09-17T04:55:17.524Z,10.20
2022-09-17T04:57:48.320Z,10.20
2022-09-17T05:00:17.620Z,10.20
2022-09-17T05:02:49.676Z,10.20
2022-09-17T05:05:17.279Z,10.20
2022-09-17T05:07:44.471Z,10.10
2022-09-17T05:10:12.742Z,10.20
2022-09-17T05:12:39.560Z,10.10
2022-09-17T05:15:07.367Z,10.10
2022-09-17T05:17:34.006Z,10.20
2022-09-17T05:20:00.797Z,10.10
2022-09-17T05:22:27.488Z,10.10
2022-09-17T05:24:54.364Z,10.10
2022-09-17T05:27:20.987Z,10.10
2022-09-17T05:29:47.661Z,10.10
2022-09-17T05:32:14.366Z,10.10
2022-09-17T05:34:41.460Z,10.10
2022-09-17T05:37:11.244Z,10.10
2022-09-17T05:39:38.004Z,10.20
2022-09-17T05:42:04.860Z,10.20
2022-09-17T05:44:31.827Z,10.30
2022-09-17T05:46:58.887Z,10.40
2022-09-17T05:49:25.671Z,10.50
2022-09-17T05:51:52.585Z,10.60
2022-09-17T05:54:19.282Z,10.70
2022-09-17T05:56:45.979Z,10.80
2022-09-17T05:59:12.837Z,11.00
2022-09-17T06:01:39.648Z,11.30
2022-09-17T06:04:06.526Z,11.80
2022-09-17T06:06:33.204Z,12.40
2022-09-17T06:09:00.514Z,13.00
2022-09-17T06:11:27.176Z,13.20
2022-09-17T06:13:55.024Z,13.10
2022-09-17T06:16:23.350Z,13.00
2022-09-17T06:18:50.260Z,12.70
2022-09-17T06:21:17.707Z,12.60
2022-09-17T06:23:44.516Z,12.90
2022-09-17T06:26:12.595Z,13.50
2022-09-17T06:28:41.729Z,14.20
2022-09-17T06:31:10.257Z,14.90
2022-09-17T06:33:37.122Z,15.50
2022-09-17T06:36:12.391Z,16.10
2022-09-17T06:38:40.183Z,16.50
2022-09-17T06:41:07.036Z,16.10
2022-09-17T06:43:34.034Z,15.40
2022-09-17T06:46:03.299Z,14.90
2022-09-17T06:48:30.910Z,14.80
2022-09-17T06:51:03.907Z,15.30
2022-09-17T06:53:31.769Z,16.20
2022-09-17T06:56:05.976Z,16.90
2022-09-17T06:58:33.837Z,17.40
2022-09-17T07:01:01.594Z,17.70
2022-09-17T07:03:30.016Z,18.10
2022-09-17T07:05:57.646Z,18.20
2022-09-17T07:08:24.636Z,17.60
2022-09-17T07:10:51.704Z,16.80
2022-09-17T07:13:18.400Z,16.60
2022-09-17T07:15:53.112Z,16.90
2022-09-17T07:18:19.838Z,17.30
2022-09-17T07:20:56.120Z,17.60
2022-09-17T07:23:24.617Z,17.80
2022-09-17T07:25:55.812Z,18.20
2022-09-17T07:28:23.162Z,18.40
2022-09-17T07:30:51.379Z,18.30
2022-09-17T07:33:23.283Z,18.10
2022-09-17T07:36:01.533Z,18.00
2022-09-17T07:38:30.006Z,17.40
2022-09-17T07:41:01.870Z,16.60
2022-09-17T07:43:31.396Z,16.00
2022-09-17T07:45:59.306Z,16.20
2022-09-17T07:48:26.770Z,16.60
2022-09-17T07:50:53.467Z,16.80
2022-09-17T07:53:20.429Z,16.60
2022-09-17T07:56:00.670Z,16.30
2022-09-17T07:58:33.594Z,16.00
2022-09-17T08:01:05.330Z,16.10
2022-09-17T08:03:32.351Z,15.80
2022-09-17T08:06:17.573Z,15.20
2022-09-17T08:08:44.350Z,14.50
2022-09-17T08:11:13.373Z,13.90
2022-09-17T08:13:40.193Z,13.20
2022-09-17T08:16:10.214Z,12.70
2022-09-17T08:18:36.955Z,12.20
2022-09-17T08:21:06.175Z,11.90
2022-09-17T08:23:36.884Z,11.80
2022-09-17T08:26:06.031Z,11.70
2022-09-17T08:28:32.918Z,11.70
2022-09-17T08:31:08.805Z,11.70
2022-09-17T08:33:38.426Z,11.80
2022-09-17T08:36:07.257Z,12.00
2022-09-17T08:38:38.358Z,12.30
2022-09-17T08:41:14.644Z,12.70
2022-09-17T08:44:18.984Z,12.90
2022-09-17T08:46:52.203Z,13.20
2022-09-17T08:49:30.666Z,14.20
2022-09-17T08:52:16.028Z,15.10
2022-09-17T08:54:54.200Z,15.30
2022-09-17T08:57:38.108Z,15.00
2022-09-17T09:00:14.653Z,14.90
2022-09-17T09:03:13.742Z,15.00
2022-09-17T09:05:46.593Z,14.90
2022-09-17T09:08:31.671Z,14.80
2022-09-17T09:11:01.510Z,14.70
2022-09-17T09:13:37.103Z,14.70
2022-09-17T09:16:16.102Z,14.80
2022-09-17T09:18:43.466Z,15.10
2022-09-17T09:21:14.286Z,15.90
2022-09-17T09:24:13.411Z,16.60
2022-09-17T09:26:57.821Z,16.50
2022-09-17T09:29:45.039Z,16.00
2022-09-17T09:32:41.038Z,15.60
2022-09-17T09:35:27.551Z,15.00
2022-09-17T09:37:57.711Z,14.60
2022-09-17T09:40:41.577Z,14.30
2022-09-17T09:43:25.431Z,14.10
2022-09-17T09:46:16.798Z,14.20
2022-09-17T09:49:07.153Z,15.00
2022-09-17T09:51:45.993Z,16.80
2022-09-17T09:54:43.025Z,17.80
2022-09-17T09:57:20.270Z,17.70
2022-09-17T09:59:47.166Z,17.40
2022-09-17T10:02:14.727Z,17.60
2022-09-17T10:04:41.513Z,18.50
2022-09-17T10:07:10.754Z,18.80
2022-09-17T10:09:44.978Z,18.10
2022-09-17T10:12:11.704Z,17.90
2022-09-17T10:14:40.511Z,18.50
2022-09-17T10:17:14.421Z,19.30
2022-09-17T10:19:41.738Z,19.80
2022-09-17T10:22:34.702Z,20.50
2022-09-17T10:25:03.905Z,21.00
2022-09-17T10:27:30.874Z,21.10
2022-09-17T10:30:09.021Z,21.20
2022-09-17T10:32:35.808Z,21.60
2022-09-17T10:35:15.805Z,22.10
2022-09-17T10:37:50.815Z,22.60
2022-09-17T10:40:20.617Z,22.70
2022-09-17T10:43:11.366Z,22.90
2022-09-17T10:45:42.159Z,22.90
2022-09-17T10:48:17.501Z,22.40
2022-09-17T10:50:52.755Z,22.00
2022-09-17T10:53:23.246Z,21.80
2022-09-17T10:56:12.220Z,22.10
2022-09-17T10:59:05.225Z,22.60
2022-09-17T11:01:58.401Z,23.10
2022-09-17T11:04:54.891Z,23.30
2022-09-17T11:07:40.478Z,22.90
2022-09-17T11:10:21.395Z,22.70
2022-09-17T11:13:04.956Z,22.50
2022-09-17T11:15:43.819Z,22.60
2022-09-17T11:18:38.892Z,22.00
2022-09-17T11:21:29.019Z,21.70
2022-09-17T11:24:07.696Z,22.10
2022-09-17T11:26:57.136Z,22.20
2022-09-17T11:29:26.596Z,21.50
2022-09-17T11:32:09.765Z,21.40
2022-09-17T11:34:42.636Z,21.60
2022-09-17T11:37:43.494Z,21.80
2022-09-17T11:40:20.115Z,21.90
2022-09-17T11:42:58.198Z,21.20
2022-09-17T11:45:31.852Z,19.80
2022-09-17T11:48:06.510Z,19.40
2022-09-17T11:50:53.187Z,20.10
2022-09-17T11:53:35.862Z,20.70
2022-09-17T11:56:16.132Z,21.30
2022-09-17T11:59:10.632Z,21.60
2022-09-17T12:01:52.917Z,20.60
2022-09-17T12:04:38.146Z,20.00
2022-09-17T12:07:21.911Z,20.70
2022-09-17T12:10:15.307Z,21.30
2022-09-17T12:12:50.530Z,21.40
2022-09-17T12:15:24.730Z,21.60
2022-09-17T12:18:37.915Z,21.80
2022-09-17T12:21:08.690Z,22.00
2022-09-17T12:23:55.669Z,21.50
2022-09-17T12:26:31.208Z,21.30
2022-09-17T12:29:17.088Z,21.20
2022-09-17T12:31:51.591Z,21.30
2022-09-17T12:34:41.607Z,21.10
2022-09-17T12:37:10.693Z,21.00
2022-09-17T12:39:54.091Z,20.90
2022-09-17T12:42:34.747Z,20.60
2022-09-17T12:45:39.603Z,20.20
2022-09-17T12:48:30.623Z,20.10
2022-09-17T12:51:10.474Z,20.80
2022-09-17T12:53:43.977Z,21.40
2022-09-17T12:56:17.580Z,21.70
2022-09-17T12:59:08.644Z,21.50
2022-09-17T13:01:57.395Z,21.30
2022-09-17T13:05:09.059Z,21.20
2022-09-17T13:08:13.298Z,21.20
2022-09-17T13:11:10.978Z,21.10
2022-09-17T13:14:05.090Z,21.00
2022-09-17T13:16:46.550Z,21.20
2022-09-17T13:19:52.819Z,21.20
2022-09-17T13:22:21.603Z,21.30
2022-09-17T13:25:06.332Z,21.50
2022-09-17T13:27:35.134Z,21.70
2022-09-17T13:30:03.152Z,21.90
2022-09-17T13:32:32.904Z,21.90
2022-09-17T13:35:11.405Z,21.40
2022-09-17T13:37:40.431Z,20.90
2022-09-17T13:40:22.706Z,20.40
2022-09-17T13:42:55.383Z,20.20
2022-09-17T13:45:23.653Z,19.80
2022-09-17T13:47:57.990Z,19.10
2022-09-17T13:50:36.325Z,18.10
2022-09-17T13:53:15.003Z,18.00
2022-09-17T13:55:50.649Z,18.80
2022-09-17T13:58:23.047Z,19.40
2022-09-17T14:01:07.916Z,19.80
2022-09-17T14:03:42.004Z,19.90
2022-09-17T14:06:09.073Z,20.00
2022-09-17T14:08:45.849Z,20.10
2022-09-17T14:11:37.207Z,20.10
2022-09-17T14:14:08.893Z,20.10
2022-09-17T14:16:46.822Z,19.90
2022-09-17T14:19:16.776Z,19.60
2022-09-17T14:22:00.564Z,19.50
2022-09-17T14:24:36.608Z,19.40
2022-09-17T14:27:15.468Z,19.10
2022-09-17T14:30:01.196Z,18.70
2022-09-17T14:33:07.527Z,18.30
2022-09-17T14:35:39.833Z,17.70
2022-09-17T14:38:28.222Z,17.30
2022-09-17T14:41:16.941Z,17.80
2022-09-17T14:44:05.787Z,18.40
2022-09-17T14:46:43.363Z,18.80
2022-09-17T14:49:24.726Z,19.00
2022-09-17T14:51:53.026Z,18.70
2022-09-17T14:54:26.034Z,17.90
2022-09-17T14:57:20.701Z,17.20
2022-09-17T14:59:51.377Z,16.40
2022-09-17T15:02:41.901Z,15.90
2022-09-17T15:05:21.320Z,15.70
2022-09-17T15:07:48.431Z,15.30
2022-09-17T15:10:21.849Z,15.00
2022-09-17T15:12:50.284Z,14.70
2022-09-17T15:15:21.590Z,14.60
2022-09-17T15:17:50.332Z,14.50
2022-09-17T15:20:28.667Z,14.40
2022-09-17T15:23:09.212Z,14.30
2022-09-17T15:25:37.878Z,14.20
2022-09-17T15:28:17.886Z,14.20
2022-09-17T15:30:46.560Z,14.10
2022-09-17T15:33:13.758Z,14.00
2022-09-17T15:35:41.089Z,14.00
2022-09-17T15:38:23.577Z,13.90
2022-09-17T15:40:51.627Z,13.80
2022-09-17T15:43:30.042Z,13.70
2022-09-17T15:46:00.706Z,13.60
2022-09-17T15:48:37.051Z,13.60
2022-09-17T15:51:07.070Z,13.50
2022-09-17T15:53:35.552Z,13.40
2022-09-17T15:56:17.270Z,13.40
2022-09-17T15:58:47.114Z,13.30
2022-09-17T16:01:16.676Z,13.20
2022-09-17T16:03:43.607Z,13.10
2022-09-17T16:06:22.214Z,13.10
2022-09-17T16:08:58.091Z,13.00
2022-09-17T16:11:33.912Z,13.00
2022-09-17T16:14:01.376Z,12.90
2022-09-17T16:16:36.106Z,12.90
2022-09-17T16:19:04.749Z,12.90
2022-09-17T16:21:32.100Z,12.90
2022-09-17T16:23:59.292Z,12.80
2022-09-17T16:26:30.447Z,12.70
2022-09-17T16:29:04.509Z,12.80
2022-09-17T16:31:31.675Z,12.70
2022-09-17T16:33:58.452Z,12.60
2022-09-17T16:36:25.315Z,12.60
2022-09-17T16:38:51.973Z,12.50
2022-09-17T16:41:18.827Z,12.50
2022-09-17T16:43:45.446Z,12.40
2022-09-17T16:46:12.309Z,12.30
2022-09-17T16:48:41.028Z,12.20
2022-09-17T16:51:09.223Z,12.20
2022-09-17T16:53:36.178Z,12.20
2022-09-17T16:56:07.309Z,12.20
2022-09-17T16:58:34.903Z,12.10
2022-09-17T17:01:13.517Z,12.10
2022-09-17T17:03:41.022Z,12.10
2022-09-17T17:06:16.170Z,12.00
2022-09-17T17:08:42.852Z,12.00
2022-09-17T17:11:09.704Z,11.90
2022-09-17T17:13:36.411Z,11.80
2022-09-17T17:16:08.301Z,11.70
2022-09-17T17:18:35.051Z,11.50
2022-09-17T17:21:06.812Z,11.40
2022-09-17T17:23:34.232Z,11.20
2022-09-17T17:26:01.151Z,11.10
2022-09-17T17:28:30.741Z,11.00
2022-09-17T17:30:57.434Z,10.90
2022-09-17T17:33:24.234Z,10.90
2022-09-17T17:35:50.929Z,10.80
2022-09-17T17:38:18.657Z,10.70
2022-09-17T17:40:45.511Z,10.60
2022-09-17T17:43:13.008Z,10.60
2022-09-17T17:45:40.243Z,10.50
2022-09-17T17:48:07.086Z,10.50
2022-09-17T17:50:34.104Z,10.40
2022-09-17T17:53:00.810Z,10.40
2022-09-17T17:55:27.439Z,10.30
2022-09-17T17:58:01.326Z,10.30
2022-09-17T18:00:28.676Z,10.30
2022-09-17T18:02:55.399Z,10.20
2022-09-17T18:05:22.134Z,10.20
2022-09-17T18:07:49.647Z,10.20
2022-09-17T18:10:16.829Z,10.10
2022-09-17T18:12:50.395Z,10.10
2022-09-17T18:15:17.354Z,10.00
2022-09-17T18:17:44.045Z,10.00
2022-09-17T18:20:11.007Z,9.90
2022-09-17T18:22:37.639Z,9.90
2022-09-17T18:25:04.703Z,9.90
2022-09-17T18:27:31.488Z,9.80
2022-09-17T18:29:58.223Z,9.80
2022-09-17T18:32:25.090Z,9.80
2022-09-17T18:34:51.814Z,9.70
2022-09-17T18:37:18.565Z,9.70
2022-09-17T18:39:57.920Z,9.60
2022-09-17T18:42:25.729Z,9.60
2022-09-17T18:44:52.565Z,9.60
2022-09-17T18:47:19.200Z,9.50
2022-09-17T18:49:45.841Z,9.60
2022-09-17T18:52:12.548Z,9.50
2022-09-17T18:54:39.210Z,9.50
2022-09-17T18:57:06.494Z,9.50
2022-09-17T18:59:33.256Z,9.40
2022-09-17T19:01:59.992Z,9.50
2022-09-17T19:04:28.586Z,9.40
2022-09-17T19:06:55.946Z,9.40
2022-09-17T19:09:22.578Z,9.40
2022-09-17T19:11:49.468Z,9.40
2022-09-17T19:14:16.172Z,9.40
2022-09-17T19:16:42.847Z,9.40
2022-09-17T19:19:09.949Z,9.40
2022-09-17T19:21:36.631Z,9.40
2022-09-17T19:24:03.663Z,9.30
2022-09-17T19:26:30.649Z,9.30
2022-09-17T19:29:00.189Z,9.30
2022-09-17T19:31:27.589Z,9.30
2022-09-17T19:33:55.436Z,9.20
2022-09-17T19:36:22.349Z,9.20
2022-09-17T19:38:49.573Z,9.20
2022-09-17T19:41:18.910Z,9.20
2022-09-17T19:43:46.722Z,9.20
2022-09-17T19:46:16.437Z,9.20
2022-09-17T19:48:48.180Z,9.20
2022-09-17T19:51:15.988Z,9.10
2022-09-17T19:53:43.005Z,9.20
2022-09-17T19:56:21.546Z,9.10
2022-09-17T19:58:48.443Z,9.10
2022-09-17T20:01:15.927Z,9.10
2022-09-17T20:03:44.493Z,9.10
2022-09-17T20:06:13.747Z,9.00
2022-09-17T20:08:48.422Z,9.00
2022-09-17T20:11:17.334Z,9.00
2022-09-17T20:13:44.480Z,9.00
2022-09-17T20:16:15.031Z,8.90
2022-09-17T20:18:43.793Z,8.90
2022-09-17T20:21:18.685Z,8.90
2022-09-17T20:23:45.455Z,8.90
2022-09-17T20:26:12.983Z,8.90
2022-09-17T20:28:40.145Z,8.90
2022-09-17T20:31:16.070Z,8.90
2022-09-17T20:33:43.474Z,8.90
2022-09-17T20:36:15.584Z,8.90
2022-09-17T20:39:11.541Z,8.80
2022-09-17T20:41:31.546Z,8.80
2022-09-17T20:43:58.677Z,8.80
2022-09-17T20:46:28.919Z,8.80
2022-09-17T20:48:57.673Z,8.70
2022-09-17T20:51:26.847Z,8.80
2022-09-17T20:53:53.797Z,8.70
2022-09-17T20:56:22.917Z,8.70
2022-09-17T20:59:03.773Z,8.70
2022-09-17T21:01:36.823Z,8.70
2022-09-17T21:04:06.181Z,8.70
2022-09-17T21:06:35.943Z,8.70
2022-09-17T21:09:03.899Z,8.70
2022-09-17T21:11:33.785Z,8.70
2022-09-17T21:14:00.913Z,8.70
2022-09-17T21:16:28.633Z,8.70
2022-09-17T21:19:01.605Z,8.70
2022-09-17T21:21:29.648Z,8.70
2022-09-17T21:24:03.881Z,8.70
2022-09-17T21:26:31.584Z,8.70
2022-09-17T21:28:58.330Z,8.80
2022-09-17T21:31:33.573Z,8.70
2022-09-17T21:34:07.100Z,8.80
2022-09-17T21:36:36.923Z,8.80
2022-09-17T21:39:16.119Z,8.80
2022-09-17T21:41:44.590Z,8.80
2022-09-17T21:44:12.582Z,8.80
2022-09-17T21:46:40.736Z,8.80
2022-09-17T21:49:07.970Z,8.90
2022-09-17T21:51:37.371Z,8.90
2022-09-17T21:54:07.074Z,8.90
2022-09-17T21:56:34.695Z,8.90
2022-09-17T21:59:04.238Z,8.90
2022-09-17T22:01:40.401Z,8.90
2022-09-17T22:04:10.214Z,8.90
2022-09-17T22:06:37.999Z,8.90
2022-09-17T22:09:06.128Z,8.90
2022-09-17T22:11:35.061Z,8.90
2022-09-17T22:14:13.839Z,9.00
2022-09-17T22:16:43.545Z,9.00
2022-09-17T22:19:12.779Z,9.00
2022-09-17T22:21:44.758Z,9.00
2022-09-17T22:24:12.034Z,9.00
2022-09-17T22:26:43.426Z,9.00
2022-09-17T22:29:19.534Z,9.00
2022-09-17T22:31:47.427Z,9.00
2022-09-17T22:34:17.663Z,9.00
2022-09-17T22:36:44.966Z,9.00
2022-09-17T22:39:12.055Z,8.90
2022-09-17T22:41:45.361Z,9.00
2022-09-17T22:44:17.838Z,8.90
2022-09-17T22:46:48.469Z,8.90
2022-09-17T22:49:15.297Z,8.90
2022-09-17T22:51:42.863Z,8.90
2022-09-17T22:54:11.973Z,8.90
2022-09-17T22:56:38.887Z,8.90
2022-09-17T22:59:05.708Z,8.80
2022-09-17T23:01:36.176Z,8.80
2022-09-17T23:04:04.379Z,8.80
2022-09-17T23:06:33.881Z,8.80
2022-09-17T23:09:00.975Z,8.80
2022-09-17T23:11:30.576Z,8.80
2022-09-17T23:14:04.035Z,8.80
2022-09-17T23:16:39.691Z,8.80
2022-09-17T23:19:06.644Z,8.80
2022-09-17T23:21:33.574Z,8.80
2022-09-17T23:24:00.285Z,8.70
2022-09-17T23:26:28.548Z,8.80
2022-09-17T23:28:55.266Z,8.80
2022-09-17T23:31:27.488Z,8.80
2022-09-17T23:33:55.714Z,8.80
2022-09-17T23:36:28.467Z,8.80
2022-09-17T23:38:56.322Z,8.70
2022-09-17T23:41:24.442Z,8.80
2022-09-17T23:43:53.541Z,8.80
2022-09-17T23:46:21.837Z,8.70
2022-09-17T23:48:49.635Z,8.70
2022-09-17T23:51:16.595Z,8.70
2022-09-17T23:53:44.197Z,8.70
2022-09-17T23:56:14.016Z,8.70
2022-09-17T23:58:41.026Z,8.80
